Time;durP1;ratioP1;P1;durP2;ratioP2;P2;SDS_P1;SDS_P2;PMS_P1;PMS_P2;Temp;Humidity;BMP_temperature;BMP_pressure;BME280_temperature;BME280_humidity;BME280_pressure;Samples;Min_cycle;Max_cycle;Signal;HPM_P1;HPM_P2
2023/10/20 00:00:14;;;;;;;39.07;5.70;;;;;;;23.77;59.12;97193.09;7313182;19;130155;-34
2023/10/20 00:02:42;;;;;;;27.90;5.30;;;;;;;23.75;58.48;97184.63;7313515;19;130564;-33
2023/10/20 00:05:08;;;;;;;37.85;5.43;;;;;;;23.75;58.96;97182.00;7312718;19;128986;-35
2023/10/20 00:07:34;;;;;;;78.68;7.30;;;;;;;23.67;58.34;97161.25;7313431;19;129194;-33
2023/10/20 00:09:59;;;;;;;87.83;8.17;;;;;;;23.76;58.72;97173.13;7311943;19;129065;-37
2023/10/20 00:12:25;;;;;;;41.73;6.10;;;;;;;23.77;59.15;97173.91;7314520;19;130661;-34
2023/10/20 00:14:51;;;;;;;36.47;5.77;;;;;;;23.79;58.37;97175.31;7313789;19;128926;-35
2023/10/20 00:17:16;;;;;;;85.87;7.50;;;;;;;23.79;57.82;97170.06;7313077;19;129278;-35
2023/10/20 00:19:42;;;;;;;42.57;6.03;;;;;;;23.78;58.17;97173.72;7312675;19;129516;-33
2023/10/20 00:22:07;;;;;;;28.15;4.90;;;;;;;23.76;58.74;97160.00;7314065;19;129243;-40
2023/10/20 00:24:33;;;;;;;30.80;5.00;;;;;;;23.79;58.13;97154.34;7314846;19;129077;-36
2023/10/20 00:26:58;;;;;;;78.63;7.13;;;;;;;23.78;58.39;97152.75;7314071;19;129014;-36
2023/10/20 00:29:25;;;;;;;103.93;9.37;;;;;;;23.79;58.23;97154.34;7314271;19;130512;-35
2023/10/20 00:31:50;;;;;;;40.22;5.68;;;;;;;23.81;58.42;97151.50;7310190;19;129510;-35
2023/10/20 00:34:15;;;;;;;69.63;6.80;;;;;;;23.83;58.25;97150.25;7311423;19;130608;-35
2023/10/20 00:36:41;;;;;;;63.67;6.83;;;;;;;23.82;57.94;97148.66;7313914;19;129146;-36
2023/10/20 00:39:06;;;;;;;21.97;4.60;;;;;;;23.77;57.38;97127.50;7314291;19;129006;-35
2023/10/20 00:41:34;;;;;;;63.57;7.07;;;;;;;23.84;58.64;97135.31;7309417;19;130597;-34
2023/10/20 00:44:00;;;;;;;57.60;6.13;;;;;;;23.83;57.93;97134.50;7313990;19;129151;-32
2023/10/20 00:46:25;;;;;;;133.93;10.10;;;;;;;23.84;58.06;97140.56;7312146;19;130299;-36
2023/10/20 00:48:51;;;;;;;17.23;4.70;;;;;;;23.82;58.01;97142.59;7313744;19;129699;-34
2023/10/20 00:51:17;;;;;;;52.97;6.43;;;;;;;23.82;57.56;97142.59;7311911;19;130132;-35
2023/10/20 00:53:42;;;;;;;67.10;6.32;;;;;;;23.80;57.43;97155.94;7312353;19;129166;-33
2023/10/20 00:56:08;;;;;;;50.73;6.00;;;;;;;23.82;57.69;97164.41;7312270;19;129004;-37
2023/10/20 00:58:33;;;;;;;87.70;8.30;;;;;;;23.81;58.14;97162.00;7313604;19;129547;-34
2023/10/20 01:00:59;;;;;;;45.37;6.07;;;;;;;23.79;57.45;97154.34;7310832;19;130507;-30
2023/10/20 01:03:24;;;;;;;106.50;8.67;;;;;;;23.80;57.82;97149.91;7313941;19;128999;-35
2023/10/20 01:05:51;;;;;;;41.30;5.73;;;;;;;23.78;57.75;97147.50;7314589;19;129144;-36
2023/10/20 01:08:17;;;;;;;56.28;7.07;;;;;;;23.72;57.89;97135.19;7312863;19;130076;-36
2023/10/20 01:10:42;;;;;;;20.23;4.90;;;;;;;23.75;57.54;97134.78;7310668;19;129242;-34
2023/10/20 01:13:08;;;;;;;69.73;6.90;;;;;;;23.79;58.12;97127.28;7313050;19;129133;-36
2023/10/20 01:15:33;;;;;;;53.57;6.20;;;;;;;23.76;57.75;97120.66;7308547;19;128905;-33
2023/10/20 01:17:59;;;;;;;63.90;7.00;;;;;;;23.76;58.28;97118.03;7312692;19;129469;-33
2023/10/20 01:20:24;;;;;;;50.23;6.30;;;;;;;23.76;57.61;97112.78;7310022;19;130383;-35
2023/10/20 01:22:50;;;;;;;83.10;7.60;;;;;;;23.72;58.43;97101.09;7313542;19;129590;-34
2023/10/20 01:25:15;;;;;;;45.33;5.83;;;;;;;23.71;57.71;97089.00;7313372;19;128852;-34
2023/10/20 01:27:41;;;;;;;34.57;5.50;;;;;;;23.74;58.03;97091.19;7310887;19;129220;-33
2023/10/20 01:30:07;;;;;;;106.67;9.10;;;;;;;23.71;58.51;97104.75;7309826;19;129363;-36
2023/10/20 01:32:32;;;;;;;35.58;4.95;;;;;;;23.62;57.92;97086.88;7312654;19;128923;-36
2023/10/20 01:34:57;;;;;;;33.30;5.40;;;;;;;23.67;57.93;97087.81;7312112;19;129579;-34
2023/10/20 01:37:23;;;;;;;66.40;6.93;;;;;;;23.68;57.59;97078.94;7311676;19;129944;-34
2023/10/20 01:39:48;;;;;;;71.57;7.40;;;;;;;23.68;58.42;97073.69;7310043;19;129586;-36
2023/10/20 01:42:14;;;;;;;19.37;4.57;;;;;;;23.67;58.56;97072.06;7312732;19;129118;-37
2023/10/20 01:44:40;;;;;;;49.87;5.97;;;;;;;23.68;58.17;97078.94;7311574;19;129048;-35
2023/10/20 01:47:05;;;;;;;40.23;5.83;;;;;;;23.67;57.81;97058.97;7309481;19;130076;-35
2023/10/20 01:49:30;;;;;;;84.87;7.63;;;;;;;23.63;58.39;97049.13;7309991;19;129227;-35
2023/10/20 01:51:56;;;;;;;43.20;6.03;;;;;;;23.64;57.95;97046.28;7312986;19;129427;-37
2023/10/20 01:54:21;;;;;;;58.00;6.60;;;;;;;23.62;58.10;97037.81;7311543;19;129805;-33
2023/10/20 01:56:47;;;;;;;41.57;6.17;;;;;;;23.65;57.94;97032.13;7310769;19;129372;-37
2023/10/20 01:59:12;;;;;;;94.17;8.20;;;;;;;23.59;58.70;97033.00;7309480;19;129512;-34
2023/10/20 02:01:37;;;;;;;36.80;5.27;;;;;;;23.56;58.53;97024.75;7309305;19;130268;-34
2023/10/20 02:04:03;;;;;;;34.67;5.60;;;;;;;23.58;58.87;97013.03;7311625;19;129611;-38
2023/10/20 02:06:28;;;;;;;62.27;7.33;;;;;;;23.61;58.10;97004.75;7301024;19;129913;-33
2023/10/20 02:08:54;;;;;;;79.47;7.10;;;;;;;23.65;59.00;96992.00;7311330;19;130211;-36
2023/10/20 02:11:19;;;;;;;62.40;6.70;;;;;;;23.66;58.51;96986.53;7309356;19;129053;-37
2023/10/20 02:13:44;;;;;;;36.10;5.90;;;;;;;23.67;58.43;96992.59;7310467;19;129402;-32
2023/10/20 02:16:10;;;;;;;60.97;6.50;;;;;;;23.65;58.04;96989.38;7308038;19;129431;-34
2023/10/20 02:18:36;;;;;;;106.07;8.93;;;;;;;23.69;58.49;96993.97;7311149;19;130752;-37
2023/10/20 02:21:03;;;;;;;41.47;6.00;;;;;;;23.65;58.17;96977.03;7309607;19;129129;-34
2023/10/20 02:23:30;;;;;;;85.95;7.82;;;;;;;23.66;58.72;96991.78;7309022;19;129161;-34
2023/10/20 02:25:59;;;;;;;84.88;8.23;;;;;;;23.67;57.83;96989.97;7311520;19;129858;-33
2023/10/20 02:28:25;;;;;;;100.00;9.00;;;;;;;23.65;58.64;96992.78;7310554;19;130492;-33
2023/10/20 02:30:50;;;;;;;60.13;7.13;;;;;;;23.63;58.60;96986.97;7309698;19;129191;-34
2023/10/20 02:33:16;;;;;;;34.00;5.23;;;;;;;23.63;58.82;96986.97;7311515;19;130748;-36
2023/10/20 02:35:41;;;;;;;51.60;6.60;;;;;;;23.62;58.63;96990.59;7307900;19;130164;-33
2023/10/20 02:38:06;;;;;;;86.60;7.77;;;;;;;23.58;58.37;96994.69;7310501;19;129667;-36
2023/10/20 02:40:33;;;;;;;49.93;6.27;;;;;;;23.46;58.92;96975.41;7309298;19;129089;-35
2023/10/20 02:42:58;;;;;;;40.35;6.03;;;;;;;23.55;59.12;96991.69;7309332;19;129425;-35
2023/10/20 02:45:23;;;;;;;89.63;8.03;;;;;;;23.51;58.51;96978.19;7309057;19;128993;-32
2023/10/20 02:47:50;;;;;;;65.80;6.90;;;;;;;23.53;58.76;96975.34;7308948;19;130249;-33
2023/10/20 02:50:17;;;;;;;35.17;5.53;;;;;;;23.49;58.96;96974.97;7309204;19;129699;-32
2023/10/20 02:52:43;;;;;;;42.55;6.03;;;;;;;23.50;58.95;96976.59;7309834;19;128902;-34
2023/10/20 02:55:08;;;;;;;66.10;7.43;;;;;;;23.50;58.49;96979.22;7309399;19;130173;-36
2023/10/20 02:57:36;;;;;;;68.10;7.33;;;;;;;23.40;58.72;96965.78;7309509;19;130209;-34
2023/10/20 03:00:04;;;;;;;52.22;6.57;;;;;;;23.50;59.55;96981.84;7314541;19;129018;-35
2023/10/20 03:02:30;;;;;;;64.13;7.32;;;;;;;23.45;58.92;96979.06;7316367;19;129661;-35
2023/10/20 03:04:55;;;;;;;65.23;6.30;;;;;;;23.49;59.39;96985.47;7316546;19;129402;-33
2023/10/20 03:07:24;;;;;;;79.10;7.90;;;;;;;23.49;58.59;96985.47;7316455;19;131579;-37
2023/10/20 03:09:51;;;;;;;32.50;5.65;;;;;;;23.51;58.56;96975.56;7313473;19;129234;-31
2023/10/20 03:12:17;;;;;;;36.17;5.47;;;;;;;23.47;59.18;96976.22;7316787;19;129099;-35
2023/10/20 03:14:43;;;;;;;43.17;6.35;;;;;;;23.46;58.94;96980.66;7313852;19;131271;-34
2023/10/20 03:17:09;;;;;;;48.13;6.03;;;;;;;23.46;59.28;96964.13;7316108;19;129545;-37
2023/10/20 03:19:35;;;;;;;70.57;7.45;;;;;;;23.45;59.20;96973.00;7314157;19;128887;-35
2023/10/20 03:22:00;;;;;;;51.70;6.30;;;;;;;23.48;59.08;96968.13;7315159;19;128813;-32
2023/10/20 03:24:25;;;;;;;80.83;7.70;;;;;;;23.50;59.42;96971.34;7315185;19;129080;-34
2023/10/20 03:26:51;;;;;;;37.53;5.73;;;;;;;23.51;59.37;96962.47;7317441;19;130345;-36
2023/10/20 03:29:16;;;;;;;27.80;5.50;;;;;;;23.51;59.00;96954.59;7315677;19;128991;-32
2023/10/20 03:31:42;;;;;;;80.93;7.47;;;;;;;23.34;59.21;96939.63;7313364;19;129084;-35
2023/10/20 03:34:08;;;;;;;69.15;7.07;;;;;;;23.47;58.85;96950.78;7316147;19;129073;-33
2023/10/20 03:36:33;;;;;;;64.22;7.13;;;;;;;23.48;58.94;96962.09;7314163;19;129577;-33
2023/10/20 03:38:59;;;;;;;33.47;5.63;;;;;;;23.23;59.29;96939.28;7316807;19;130038;-34
2023/10/20 03:41:25;;;;;;;54.27;6.83;;;;;;;23.35;59.37;96957.78;7313872;19;128851;-34
2023/10/20 03:43:50;;;;;;;71.67;7.43;;;;;;;23.49;58.10;96940.88;7314100;19;130886;-34
2023/10/20 03:46:18;;;;;;;29.93;5.27;;;;;;;23.66;57.46;96944.56;7315941;19;130172;-35
2023/10/20 03:48:45;;;;;;;34.55;5.25;;;;;;;23.87;56.89;96940.72;7314568;19;129112;-37
2023/10/20 03:51:12;;;;;;;46.83;6.30;;;;;;;23.93;56.85;96932.75;7312790;19;129453;-33
2023/10/20 03:53:50;;;;;;;99.78;8.60;;;;;;;24.18;56.32;96932.72;7315167;19;130033;-37
2023/10/20 03:56:18;;;;;;;65.20;7.13;;;;;;;24.23;56.02;96933.66;7310541;19;130491;-39
2023/10/20 03:58:46;;;;;;;32.80;5.45;;;;;;;24.27;56.40;96941.91;7315191;19;129458;-35
2023/10/20 04:01:11;;;;;;;37.00;5.88;;;;;;;24.36;55.72;96957.13;7307947;19;129138;-32
2023/10/20 04:03:38;;;;;;;78.83;8.20;;;;;;;24.27;55.71;96932.19;7312217;19;129612;-33
2023/10/20 04:06:08;;;;;;;58.10;6.65;;;;;;;24.48;55.71;96953.78;7315561;19;130431;-33
2023/10/20 04:08:34;;;;;;;93.40;9.35;;;;;;;24.57;55.22;96947.16;7315155;19;129416;-33
2023/10/20 04:11:00;;;;;;;37.13;5.90;;;;;;;24.66;55.37;96943.22;7311876;19;129444;-32
2023/10/20 04:13:25;;;;;;;67.87;7.43;;;;;;;24.71;55.24;96938.91;7314613;19;129323;-34
2023/10/20 04:15:52;;;;;;;84.40;7.87;;;;;;;24.70;54.49;96920.75;7312425;19;129517;-35
2023/10/20 04:18:19;;;;;;;39.20;5.70;;;;;;;24.82;54.63;96924.22;7311456;19;129482;-33
2023/10/20 04:20:48;;;;;;;31.27;5.35;;;;;;;24.92;54.59;96925.28;7309994;19;129113;-35
2023/10/20 04:23:13;;;;;;;50.33;6.13;;;;;;;24.99;54.21;96917.28;7313435;19;129434;-34
2023/10/20 04:25:39;;;;;;;63.43;6.93;;;;;;;24.95;54.15;96902.97;7314759;19;130453;-37
2023/10/20 04:52:05;;;;;;;33.22;5.47;;;;;;;24.60;55.52;96883.66;7312273;19;129105;-35
2023/10/20 04:54:45;;;;;;;78.80;8.23;;;;;;;24.48;55.61;96885.47;7310405;19;130429;-38
2023/10/20 05:00:14;;;;;;;66.63;7.05;;;;;;;24.37;56.42;96879.97;7309862;19;129369;-34
2023/10/20 05:02:39;;;;;;;71.15;7.20;;;;;;;24.32;57.00;96877.19;7309730;19;130664;-39
2023/10/20 05:05:15;;;;;;;47.20;5.78;;;;;;;24.31;56.99;96880.84;7312421;19;130034;-34
2023/10/20 05:07:49;;;;;;;106.57;8.68;;;;;;;24.26;56.69;96875.44;7311338;19;130356;-34
2023/10/20 05:10:14;;;;;;;90.55;8.88;;;;;;;24.19;57.56;96872.13;7307550;19;129116;-34
2023/10/20 05:12:39;;;;;;;36.57;5.87;;;;;;;24.16;57.03;96872.53;7311243;19;131557;-35
2023/10/20 05:15:05;;;;;;;31.47;5.33;;;;;;;24.17;57.21;96861.03;7312041;19;130151;-34
2023/10/20 05:17:32;;;;;;;100.80;8.97;;;;;;;24.17;56.88;96853.16;7309077;19;132815;-34
2023/10/20 05:19:57;;;;;;;48.78;6.18;;;;;;;24.20;57.05;96846.66;7311376;19;128856;-35
2023/10/20 05:22:23;;;;;;;100.43;9.00;;;;;;;24.27;56.93;96839.50;7307288;19;130101;-36
2023/10/20 05:24:51;;;;;;;45.23;6.37;;;;;;;24.33;56.34;96847.28;7311006;19;130561;-36
2023/10/20 05:27:16;;;;;;;70.53;7.40;;;;;;;24.38;55.81;96844.78;7313335;19;129197;-34
2023/10/20 05:29:42;;;;;;;73.37;7.73;;;;;;;24.34;56.13;96817.38;7308349;19;129515;-33
2023/10/20 05:32:07;;;;;;;29.03;5.67;;;;;;;24.42;55.51;96808.38;7312996;19;129674;-34
2023/10/20 05:34:34;;;;;;;41.63;6.37;;;;;;;24.43;54.20;96821.28;7311910;19;131480;-33
2023/10/20 05:36:59;;;;;;;93.80;8.35;;;;;;;24.51;53.24;96814.88;7308096;19;130225;-33
2023/10/20 05:39:25;;;;;;;56.63;6.60;;;;;;;24.55;52.23;96817.88;7313018;19;129215;-32
2023/10/20 05:41:50;;;;;;;31.57;5.10;;;;;;;24.58;52.05;96822.69;7312595;19;129046;-36
2023/10/20 05:44:21;;;;;;;18.70;5.00;;;;;;;24.49;52.15;96815.13;7311386;19;129104;-32
2023/10/20 05:46:47;;;;;;;59.88;6.43;;;;;;;24.61;52.45;96823.03;7309589;19;131101;-34
2023/10/20 05:49:12;;;;;;;32.07;5.20;;;;;;;24.65;50.84;96839.13;7312970;19;129283;-34
2023/10/20 05:51:37;;;;;;;43.97;6.43;;;;;;;24.67;51.65;96847.59;7310052;19;129165;-35
2023/10/20 05:54:05;;;;;;;55.53;6.57;;;;;;;24.56;54.14;96830.78;7312006;19;130347;-33
2023/10/20 05:56:31;;;;;;;95.80;8.02;;;;;;;24.52;53.81;96824.38;7307838;19;129096;-35
2023/10/20 05:58:56;;;;;;;32.83;5.47;;;;;;;24.48;54.69;96817.19;7310973;19;129225;-33
2023/10/20 06:01:22;;;;;;;29.87;5.30;;;;;;;24.43;54.70;96829.16;7310274;19;129162;-34
2023/10/20 06:03:47;;;;;;;34.57;6.17;;;;;;;24.38;55.05;96821.16;7310744;19;129421;-35
2023/10/20 06:06:12;;;;;;;92.13;8.17;;;;;;;24.33;55.40;96821.03;7312235;19;129800;-34
2023/10/20 06:08:38;;;;;;;123.47;10.00;;;;;;;24.31;56.00;96828.31;7310609;19;131010;-35
2023/10/20 06:11:05;;;;;;;14.10;4.40;;;;;;;24.26;56.17;96824.78;7308579;19;129529;-34
2023/10/20 06:13:35;;;;;;;20.98;5.05;;;;;;;24.20;56.04;96829.09;7311570;19;129210;-33
2023/10/20 06:16:11;;;;;;;78.68;6.97;;;;;;;24.16;56.68;96814.78;7310900;19;131064;-37
2023/10/20 06:18:37;;;;;;;108.22;9.55;;;;;;;24.14;56.44;96821.31;7311912;19;129694;-33
2023/10/20 06:21:03;;;;;;;;;;;;;;;24.15;54.72;96821.06;7309546;19;129123;-33
2023/10/20 06:23:29;;;;;;;53.60;5.93;;;;;;;24.20;52.95;96821.22;7311144;19;130997;-33
2023/10/20 06:25:56;;;;;;;71.15;6.63;;;;;;;24.27;52.40;96811.44;7312124;19;130453;-31
2023/10/20 06:28:21;;;;;;;41.45;5.10;;;;;;;24.33;51.90;96805.25;7312901;19;129205;-34
2023/10/20 06:30:48;;;;;;;41.47;5.30;;;;;;;24.35;53.65;96808.47;7309245;19;129472;-33
2023/10/20 06:35:51;;;;;;;87.93;7.40;;;;;;;24.18;55.66;96802.25;7309777;19;129173;-33
2023/10/20 06:40:57;;;;;;;47.97;5.38;;;;;;;24.02;56.11;96802.88;7310916;19;128965;-34
2023/10/20 06:43:25;;;;;;;29.37;4.80;;;;;;;23.88;56.43;96779.63;7310893;19;129483;-34
2023/10/20 06:45:55;;;;;;;30.35;4.63;;;;;;;23.95;57.00;96794.25;7311019;19;130414;-33
2023/10/20 06:48:20;;;;;;;44.40;5.25;;;;;;;24.00;56.42;96793.63;7311222;19;128914;-32
2023/10/20 06:50:46;;;;;;;59.73;6.00;;;;;;;23.98;57.12;96785.19;7309039;19;129103;-36
2023/10/20 06:53:11;;;;;;;32.33;4.97;;;;;;;23.97;57.11;96780.91;7310459;19;130768;-34
2023/10/20 06:55:41;;;;;;;57.27;5.97;;;;;;;23.94;56.87;96774.31;7308085;19;129116;-34
2023/10/20 06:58:06;;;;;;;67.85;6.80;;;;;;;23.91;54.20;96774.75;7310461;19;129010;-35
2023/10/20 07:00:32;;;;;;;67.30;6.50;;;;;;;24.03;53.13;96778.22;7308197;19;129768;-34
2023/10/20 07:02:57;;;;;;;28.80;4.43;;;;;;;24.13;52.27;96768.00;7310991;19;129413;-32
2023/10/20 07:05:23;;;;;;;26.60;3.87;;;;;;;24.19;52.48;96766.31;7309204;19;129362;-36
2023/10/20 07:07:49;;;;;;;78.85;6.65;;;;;;;24.09;51.68;96735.34;7309029;19;129423;-34
2023/10/20 07:10:17;;;;;;;48.83;5.47;;;;;;;24.29;52.31;96759.50;7309178;19;128993;-35
2023/10/20 07:12:43;;;;;;;56.20;5.97;;;;;;;24.20;55.01;96763.47;7309735;19;130195;-34
2023/10/20 07:15:08;;;;;;;35.67;5.07;;;;;;;24.08;55.41;96759.22;7309017;19;129932;-38
2023/10/20 07:17:34;;;;;;;66.47;6.00;;;;;;;23.97;55.22;96738.94;7308011;19;130664;-34
2023/10/20 07:20:00;;;;;;;39.50;5.13;;;;;;;23.96;55.85;96743.41;7309307;19;129129;-37
2023/10/20 07:22:26;;;;;;;34.63;4.60;;;;;;;23.90;56.16;96741.66;7309744;19;129474;-33
2023/10/20 07:24:52;;;;;;;31.10;4.55;;;;;;;23.88;56.80;96733.19;7309573;19;130518;-33
2023/10/20 07:27:19;;;;;;;58.10;5.77;;;;;;;23.84;57.07;96741.75;7310075;19;128893;-34
2023/10/20 07:29:44;;;;;;;74.18;6.50;;;;;;;23.80;56.33;96736.13;7308437;19;128957;-35
2023/10/20 07:32:12;;;;;;;37.73;5.10;;;;;;;23.76;57.15;96729.75;7310327;19;129183;-33
2023/10/20 07:34:37;;;;;;;60.40;6.38;;;;;;;23.74;56.86;96721.28;7308185;19;130338;-37
2023/10/20 07:37:02;;;;;;;68.67;6.17;;;;;;;23.75;57.57;96715.00;7306350;19;128847;-34
2023/10/20 07:39:28;;;;;;;50.33;5.47;;;;;;;23.71;54.49;96706.00;7308483;19;129481;-35
2023/10/20 07:41:54;;;;;;;33.67;4.73;;;;;;;23.84;53.30;96705.00;7309690;19;130291;-35
2023/10/20 07:44:19;;;;;;;39.83;5.00;;;;;;;23.94;52.27;96708.69;7312291;19;130493;-37
2023/10/20 07:46:44;;;;;;;82.17;6.73;;;;;;;23.90;51.91;96691.78;7315769;19;129139;-38
2023/10/20 07:49:13;;;;;;;63.77;5.90;;;;;;;24.04;51.26;96695.06;7316556;19;129286;-34
2023/10/20 07:51:39;;;;;;;41.72;4.72;;;;;;;24.08;51.77;96697.00;7311627;19;129350;-34
2023/10/20 07:54:05;;;;;;;32.42;4.30;;;;;;;24.09;54.33;96697.81;7315952;19;130339;-33
2023/10/20 07:56:30;;;;;;;74.90;6.23;;;;;;;24.01;55.62;96696.31;7313928;19;128710;-35
2023/10/20 07:58:56;;;;;;;15.13;3.53;;;;;;;23.90;56.15;96689.16;7315416;19;129526;-35
2023/10/20 08:01:21;;;;;;;44.10;4.70;;;;;;;23.84;56.62;96674.34;7313653;19;129574;-38
2023/10/20 08:03:47;;;;;;;51.90;5.57;;;;;;;23.80;56.22;96672.38;7313068;19;129236;-32
2023/10/20 08:06:14;;;;;;;82.67;6.57;;;;;;;23.79;56.75;96674.19;7315339;19;128899;-35
2023/10/20 08:08:39;;;;;;;84.68;7.38;;;;;;;23.74;56.77;96671.44;7315670;19;129389;-34
2023/10/20 08:11:06;;;;;;;31.40;4.40;;;;;;;23.77;56.98;96689.34;7313732;19;129568;-35
2023/10/20 08:13:33;;;;;;;67.13;6.05;;;;;;;23.74;56.78;96696.88;7313863;19;130335;-38
2023/10/20 08:16:08;;;;;;;66.00;5.93;;;;;;;23.71;57.57;96686.81;7314432;19;129005;-35
2023/10/20 08:18:34;;;;;;;57.75;5.90;;;;;;;23.69;56.98;96676.56;7315729;19;128757;-38
2023/10/20 08:21:03;;;;;;;15.03;3.73;;;;;;;23.67;57.55;96670.72;7313132;19;130095;-34
2023/10/20 08:23:28;;;;;;;33.85;4.38;;;;;;;23.63;54.41;96655.69;7315000;19;131012;-36
2023/10/20 08:25:54;;;;;;;74.40;6.03;;;;;;;23.75;52.93;96646.81;7313224;19;129275;-34
2023/10/20 08:28:19;;;;;;;35.33;4.30;;;;;;;23.72;52.21;96623.66;7315327;19;128926;-35
2023/10/20 08:30:44;;;;;;;28.53;4.00;;;;;;;23.90;52.42;96641.94;7311273;19;129489;-35
2023/10/20 08:33:10;;;;;;;31.33;4.10;;;;;;;23.81;51.89;96624.94;7314629;19;131177;-34
2023/10/20 08:35:37;;;;;;;106.40;7.32;;;;;;;23.96;51.14;96638.44;7314689;19;129792;-35
2023/10/20 08:38:03;;;;;;;32.80;4.03;;;;;;;23.98;53.15;96632.97;7314365;19;129046;-35
2023/10/20 08:40:32;;;;;;;64.07;5.53;;;;;;;23.87;53.83;96631.09;7312401;19;130925;-36
2023/10/20 08:43:02;;;;;;;34.75;4.30;;;;;;;23.83;55.54;96635.97;7315057;19;129137;-35
2023/10/20 08:45:31;;;;;;;84.68;6.75;;;;;;;23.77;56.38;96630.84;7314662;19;129365;-33
2023/10/20 08:47:57;;;;;;;46.53;4.63;;;;;;;23.72;56.44;96634.13;7314367;19;129558;-36
2023/10/20 08:50:24;;;;;;;34.17;4.40;;;;;;;23.69;57.13;96621.47;7312986;19;129473;-37
2023/10/20 08:52:50;;;;;;;;;;;;;;;23.72;57.59;96607.09;7314086;19;129730;-34
2023/10/20 08:55:16;;;;;;;74.90;6.07;;;;;;;23.67;57.16;96607.00;7311617;19;128976;-34
2023/10/20 08:57:41;;;;;;;65.63;6.13;;;;;;;23.67;57.52;96607.78;7314331;19;128934;-34
2023/10/20 09:00:08;;;;;;;28.50;4.17;;;;;;;23.65;57.66;96611.66;7311313;19;129274;-33
2023/10/20 09:02:37;;;;;;;32.30;4.10;;;;;;;23.65;58.31;96609.81;7313795;19;131027;-36
2023/10/20 09:05:03;;;;;;;70.78;5.95;;;;;;;23.62;58.08;96612.91;7314436;19;129193;-36
2023/10/20 09:07:31;;;;;;;22.90;3.57;;;;;;;23.46;53.73;96591.75;7314525;19;129398;-33
2023/10/20 09:09:56;;;;;;;57.88;5.00;;;;;;;23.67;53.16;96615.66;7311801;19;129583;-36
2023/10/20 09:12:22;;;;;;;19.37;3.57;;;;;;;23.74;52.70;96605.88;7313567;19;130361;-39
2023/10/20 09:14:48;;;;;;;110.90;7.47;;;;;;;23.81;52.35;96601.31;7312801;19;128943;-36
2023/10/20 09:17:24;;;;;;;36.07;3.87;;;;;;;23.85;51.63;96597.22;7312844;19;129059;-36
2023/10/20 09:19:50;;;;;;;43.67;5.03;;;;;;;23.89;53.06;96593.13;7312425;19;130303;-39
2023/10/20 09:22:26;;;;;;;40.00;4.37;;;;;;;23.80;53.03;96578.72;7311518;19;130350;-38
2023/10/20 09:24:54;;;;;;;58.60;5.35;;;;;;;23.72;53.87;96562.50;7314220;19;129140;-35
2023/10/20 09:27:19;;;;;;;86.65;6.53;;;;;;;23.73;54.36;96557.06;7313730;19;129693;-33
2023/10/20 09:29:45;;;;;;;57.57;5.43;;;;;;;23.74;54.62;96558.66;7313437;19;131412;-34
2023/10/20 09:32:11;;;;;;;35.57;4.13;;;;;;;23.69;55.79;96574.25;7312823;19;129174;-35
2023/10/20 09:34:37;;;;;;;32.85;4.05;;;;;;;23.68;55.93;96566.63;7313687;19;129657;-35
2023/10/20 09:37:03;;;;;;;88.90;6.70;;;;;;;23.66;55.50;96564.22;7310855;19;129960;-37
2023/10/20 09:39:37;;;;;;;36.03;4.30;;;;;;;23.61;57.33;96535.25;7313851;19;130842;-34
2023/10/20 09:42:05;;;;;;;59.22;5.25;;;;;;;23.63;56.14;96548.13;7311820;19;130389;-34
2023/10/20 09:44:49;;;;;;;48.60;4.55;;;;;;;23.61;57.59;96547.56;7311392;19;129638;-35
2023/10/20 09:47:27;;;;;;;12.32;3.42;;;;;;;23.61;57.45;96543.13;7312617;19;128921;-36
2023/10/20 09:49:53;;;;;;;61.67;5.50;;;;;;;23.62;56.73;96544.72;7310722;19;130403;-35
2023/10/20 09:52:19;;;;;;;65.22;5.43;;;;;;;23.54;54.00;96541.63;7312926;19;129875;-38
2023/10/20 09:54:46;;;;;;;58.93;5.23;;;;;;;23.64;52.89;96547.91;7313030;19;129469;-36
2023/10/20 09:57:13;;;;;;;30.63;3.55;;;;;;;23.73;52.39;96538.69;7309506;19;129006;-33
2023/10/20 09:59:38;;;;;;;40.17;3.72;;;;;;;23.77;52.22;96547.69;7309217;19;129269;-37
2023/10/20 10:02:04;;;;;;;44.50;4.07;;;;;;;23.81;51.46;96548.84;7311628;19;129205;-36
2023/10/20 10:04:36;;;;;;;29.00;3.50;;;;;;;23.81;52.28;96548.84;7313319;19;129016;-35
2023/10/20 10:07:05;;;;;;;46.20;4.28;;;;;;;23.81;52.99;96553.28;7311072;19;131320;-34
2023/10/20 10:09:37;;;;;;;34.58;3.88;;;;;;;23.72;53.36;96541.53;7311955;19;130225;-35
2023/10/20 10:12:07;;;;;;;64.75;5.20;;;;;;;23.68;53.87;96543.00;7312153;19;130347;-36
2023/10/20 10:14:33;;;;;;;63.88;5.38;;;;;;;23.66;54.18;96545.06;7311589;19;130051;-35
2023/10/20 10:17:01;;;;;;;58.87;5.37;;;;;;;23.64;54.75;96555.78;7310318;19;129960;-38
2023/10/20 10:19:27;;;;;;;20.38;3.08;;;;;;;23.61;54.69;96543.13;7310246;19;129236;-36
2023/10/20 10:21:57;;;;;;;99.10;6.93;;;;;;;23.60;55.00;96545.97;7311879;19;130252;-33
2023/10/20 10:24:23;;;;;;;54.58;5.20;;;;;;;23.58;55.86;96548.81;7313091;19;129119;-36
2023/10/20 10:26:54;;;;;;;71.30;6.13;;;;;;;23.57;55.86;96557.69;7311591;19;129515;-34
2023/10/20 10:29:48;;;;;;;37.58;3.80;;;;;;;23.49;56.68;96544.91;7309890;19;130340;-33
2023/10/20 10:32:14;;;;;;;31.23;3.50;;;;;;;23.57;56.10;96562.16;7312055;19;130864;-36
2023/10/20 10:34:41;;;;;;;31.13;3.87;;;;;;;23.54;55.88;96558.16;7311805;19;129259;-37
2023/10/20 10:37:06;;;;;;;93.50;6.65;;;;;;;23.38;54.51;96543.09;7309158;19;129480;-35
2023/10/20 10:39:33;;;;;;;;;;;;;;;23.53;52.65;96561.81;7312296;19;130490;-37
2023/10/20 10:42:03;;;;;;;52.65;5.03;;;;;;;23.62;52.67;96573.56;7310679;19;130342;-33
2023/10/20 10:44:36;;;;;;;29.80;3.28;;;;;;;23.69;52.29;96576.06;7310953;19;128898;-34
2023/10/20 10:47:03;;;;;;;73.05;5.78;;;;;;;23.77;51.73;96567.88;7310643;19;129601;-34
2023/10/20 10:49:30;;;;;;;69.78;5.22;;;;;;;23.81;51.89;96580.34;7310834;19;129484;-35
2023/10/20 10:51:56;;;;;;;80.18;6.15;;;;;;;23.64;52.43;96555.78;7310195;19;131078;-33
2023/10/20 10:54:21;;;;;;;20.97;2.97;;;;;;;23.65;53.67;96567.84;7310500;19;129495;-33
2023/10/20 10:56:48;;;;;;;69.00;5.43;;;;;;;23.63;53.92;96577.81;7309108;19;129033;-35
2023/10/20 10:59:14;;;;;;;49.65;4.35;;;;;;;23.60;54.09;96566.97;7309481;19;129280;-37
2023/10/20 11:01:40;;;;;;;34.70;3.73;;;;;;;23.58;54.59;96558.50;7309326;19;130377;-32
2023/10/20 11:04:10;;;;;;;33.33;3.63;;;;;;;23.42;54.87;96533.72;7308160;19;129666;-38
2023/10/20 11:06:39;;;;;;;57.60;4.93;;;;;;;23.50;55.11;96551.78;7310212;19;129726;-36
2023/10/20 11:09:13;;;;;;;73.35;5.57;;;;;;;23.50;55.93;96546.53;7309163;19;130218;-36
2023/10/20 11:11:43;;;;;;;28.05;3.45;;;;;;;23.47;56.27;96546.97;7308335;19;130986;-35
2023/10/20 11:14:10;;;;;;;49.38;4.32;;;;;;;23.36;56.13;96529.41;7308740;19;130770;-35
2023/10/20 11:16:39;;;;;;;29.50;3.63;;;;;;;23.50;55.54;96548.34;7307885;19;128930;-33
2023/10/20 11:19:04;;;;;;;91.78;6.38;;;;;;;23.49;55.92;96539.69;7311350;19;130176;-33
2023/10/20 11:21:51;;;;;;;20.00;2.93;;;;;;;23.35;52.82;96519.13;7315837;19;130468;-35
2023/10/20 11:24:39;;;;;;;44.80;4.35;;;;;;;23.53;51.87;96521.66;7317827;19;129977;-35
2023/10/20 11:27:05;;;;;;;43.90;3.67;;;;;;;23.62;52.17;96522.94;7316079;19;128955;-37
2023/10/20 11:29:32;;;;;;;45.17;3.73;;;;;;;23.69;51.39;96528.88;7315185;19;129937;-36
2023/10/20 11:32:08;;;;;;;47.28;4.20;;;;;;;23.66;51.48;96519.63;7314576;19;129826;-33
2023/10/20 11:34:35;;;;;;;64.18;5.10;;;;;;;23.74;52.12;96516.69;7315808;19;129656;-34
2023/10/20 11:37:01;;;;;;;101.97;6.55;;;;;;;23.66;53.42;96513.59;7313783;19;130010;-36
2023/10/20 11:39:27;;;;;;;32.87;3.53;;;;;;;23.61;53.46;96516.91;7315441;19;129496;-34
2023/10/20 11:41:56;;;;;;;62.23;5.30;;;;;;;23.56;54.61;96498.41;7315187;19;129435;-34
2023/10/20 11:44:24;;;;;;;34.65;3.67;;;;;;;23.54;54.23;96499.66;7316129;19;128932;-35
2023/10/20 11:46:52;;;;;;;60.30;4.65;;;;;;;23.52;54.48;96492.03;7315352;19;129365;-35